Time;durP1;ratioP1;P1;durP2;ratioP2;P2;SDS_P1;SDS_P2;PMS_P1;PMS_P2;Temp;Humidity;BMP_temperature;BMP_pressure;BME280_temperature;BME280_humidity;BME280_pressure;Samples;Min_cycle;Max_cycle;Signal;HPM_P1;HPM_P2
2021/11/19 00:00:41;;;;;;;7.22;4.97;;;;;;;23.03;39.18;95790.06;5064741;28;20473;-62
2021/11/19 00:03:07;;;;;;;7.18;4.88;;;;;;;22.99;39.24;95795.00;5064967;28;20040;-62
2021/11/19 00:05:33;;;;;;;7.00;4.70;;;;;;;22.99;38.92;95794.25;5046901;28;20506;-61
2021/11/19 00:07:59;;;;;;;7.38;4.70;;;;;;;22.96;39.01;95790.50;5046510;28;20125;-61
2021/11/19 00:10:24;;;;;;;6.95;4.75;;;;;;;22.96;39.33;95803.41;5064877;28;20059;-61
2021/11/19 00:12:50;;;;;;;6.30;4.50;;;;;;;22.93;39.17;95796.94;5046749;28;20402;-62
2021/11/19 00:15:16;;;;;;;6.35;4.32;;;;;;;22.92;39.02;95795.41;5065197;28;20021;-61
2021/11/19 00:17:42;;;;;;;8.50;4.78;;;;;;;22.90;39.51;95797.88;5046361;28;20028;-61
2021/11/19 00:20:09;;;;;;;7.07;4.75;;;;;;;22.89;39.51;95799.09;5064605;28;20024;-61
2021/11/19 00:22:34;;;;;;;6.78;4.40;;;;;;;22.88;39.07;95794.91;5064717;28;20395;-62
2021/11/19 00:25:00;;;;;;;5.57;3.97;;;;;;;22.87;39.19;95802.81;5030289;28;20036;-62
2021/11/19 00:27:25;;;;;;;6.65;4.50;;;;;;;22.86;39.53;95806.78;5064506;28;20043;-61
2021/11/19 00:29:51;;;;;;;7.38;4.68;;;;;;;22.85;39.27;95805.28;5064417;28;20035;-61
2021/11/19 00:32:17;;;;;;;7.20;4.78;;;;;;;22.82;39.22;95798.06;5064851;28;20028;-63
2021/11/19 00:34:42;;;;;;;6.28;4.55;;;;;;;22.82;39.27;95806.25;5064615;28;20560;-62
2021/11/19 00:37:08;;;;;;;7.10;4.60;;;;;;;22.80;39.42;95809.47;5064349;28;20040;-62
2021/11/19 00:39:33;;;;;;;6.13;4.28;;;;;;;22.78;39.68;95801.03;5064528;28;20090;-64
2021/11/19 00:42:00;;;;;;;6.72;4.60;;;;;;;22.77;39.67;95809.69;5046600;28;20055;-62
2021/11/19 00:44:26;;;;;;;7.50;4.43;;;;;;;22.76;39.35;95819.81;5030107;28;20052;-62
2021/11/19 00:46:51;;;;;;;6.72;4.60;;;;;;;22.75;39.63;95817.56;5046499;28;20063;-63
2021/11/19 00:49:18;;;;;;;6.93;4.57;;;;;;;22.74;39.74;95816.09;5046346;28;20480;-61
2021/11/19 00:51:46;;;;;;;6.13;4.45;;;;;;;22.73;39.45;95814.59;5064321;28;20070;-63
2021/11/19 00:54:11;;;;;;;6.05;4.30;;;;;;;22.71;39.64;95806.91;5046777;28;20086;-63
2021/11/19 00:56:40;;;;;;;6.07;3.95;;;;;;;22.71;39.64;95809.66;5046483;28;20465;-62
2021/11/19 00:59:06;;;;;;;7.50;4.50;;;;;;;22.71;39.38;95811.63;5046744;28;20033;-63
2021/11/19 01:04:00;;;;;;;7.10;4.25;;;;;;;22.68;39.57;95809.88;4673818;28;20050;-67
2021/11/19 01:06:26;;;;;;;7.82;4.90;;;;;;;22.67;39.91;95806.38;5004133;28;20515;-68
2021/11/19 01:08:52;;;;;;;6.13;4.30;;;;;;;22.66;39.76;95798.72;5005226;28;20026;-67
2021/11/19 01:11:19;;;;;;;6.53;4.47;;;;;;;22.66;39.76;95809.59;4987642;28;20037;-68
2021/11/19 01:13:45;;;;;;;7.15;4.68;;;;;;;22.66;39.86;95798.72;5003419;28;20042;-68
2021/11/19 01:16:23;;;;;;;5.82;4.05;;;;;;;22.64;40.09;95801.19;4986952;28;20037;-68
2021/11/19 01:18:53;;;;;;;6.05;3.90;;;;;;;22.63;40.03;95799.69;5004785;28;20148;-68
2021/11/19 01:21:24;;;;;;;6.82;4.45;;;;;;;22.62;39.68;95809.09;5004744;28;20056;-68
2021/11/19 01:23:50;;;;;;;5.70;3.90;;;;;;;22.62;39.68;95809.84;5003355;28;20100;-68
2021/11/19 01:26:22;;;;;;;6.03;3.80;;;;;;;22.60;39.96;95801.41;5004818;28;20029;-68
2021/11/19 01:28:54;;;;;;;5.43;3.83;;;;;;;22.59;39.53;95799.91;5005851;28;20034;-68
2021/11/19 01:31:23;;;;;;;6.30;4.30;;;;;;;22.59;39.76;95794.47;5008541;28;20132;-68
2021/11/19 01:33:49;;;;;;;6.35;4.47;;;;;;;22.58;39.58;95798.41;5008498;28;20120;-68
2021/11/19 01:36:18;;;;;;;5.95;3.95;;;;;;;22.57;39.72;95790.72;5007393;28;20735;-68
2021/11/19 01:38:44;;;;;;;6.10;4.20;;;;;;;22.57;39.66;95790.72;4990930;28;20034;-68
2021/11/19 01:41:19;;;;;;;5.38;3.88;;;;;;;22.54;39.87;95794.41;4990361;28;20415;-68
2021/11/19 01:43:45;;;;;;;6.10;4.10;;;;;;;22.56;39.82;95789.25;4991470;28;20037;-68
2021/11/19 01:46:13;;;;;;;5.32;3.60;;;;;;;22.54;39.77;95791.69;5008145;28;20072;-68
2021/11/19 01:48:40;;;;;;;5.60;4.05;;;;;;;22.55;39.72;95796.66;5006631;28;20092;-68
2021/11/19 01:51:21;;;;;;;5.85;4.07;;;;;;;22.53;39.54;95784.78;5007787;28;20034;-68
2021/11/19 01:53:59;;;;;;;4.75;3.50;;;;;;;22.54;39.80;95786.25;4990634;28;20025;-68
2021/11/19 01:56:50;;;;;;;5.72;4.07;;;;;;;22.52;39.72;95783.28;4991837;28;20026;-68
2021/11/19 01:59:34;;;;;;;6.03;4.10;;;;;;;22.51;39.70;95781.78;4983225;28;20064;-68
2021/11/19 02:02:06;;;;;;;5.50;3.75;;;;;;;22.51;40.03;95792.66;4992361;28;20113;-68
2021/11/19 02:04:43;;;;;;;6.22;4.28;;;;;;;22.50;39.73;95791.19;5007982;28;20132;-68
2021/11/19 02:07:14;;;;;;;5.55;3.63;;;;;;;22.50;39.92;95785.75;5007769;28;20499;-68
2021/11/19 02:09:50;;;;;;;6.10;3.90;;;;;;;22.49;39.68;95776.81;5006016;28;20029;-68
2021/11/19 02:12:19;;;;;;;6.50;3.95;;;;;;;22.50;39.98;95777.59;4990802;28;20018;-68
2021/11/19 02:14:51;;;;;;;5.75;4.13;;;;;;;22.49;39.65;95778.81;4989856;28;20040;-68
2021/11/19 02:17:16;;;;;;;5.05;3.88;;;;;;;22.47;39.77;95775.84;4990592;28;20164;-68
2021/11/19 02:19:50;;;;;;;5.20;3.78;;;;;;;22.46;39.71;95780.50;5007164;28;20504;-68
2021/11/19 02:22:16;;;;;;;5.65;3.92;;;;;;;22.46;39.61;95775.06;5006081;28;20419;-68
2021/11/19 02:24:46;;;;;;;5.93;3.97;;;;;;;22.46;39.60;95780.50;5007312;28;20037;-68
2021/11/19 02:27:16;;;;;;;4.95;3.80;;;;;;;22.46;39.89;95779.78;5007345;28;20045;-68
2021/11/19 02:29:45;;;;;;;6.07;4.15;;;;;;;22.44;39.96;95774.06;5007226;28;20033;-68
2021/11/19 02:32:27;;;;;;;5.78;3.90;;;;;;;22.44;39.88;95774.06;5006391;28;20025;-68
2021/11/19 02:34:52;;;;;;;5.20;3.58;;;;;;;22.43;39.61;95770.63;5006110;28;20567;-68
2021/11/19 02:37:38;;;;;;;5.32;3.95;;;;;;;22.43;39.64;95769.84;5007490;28;20045;-68
2021/11/19 02:40:09;;;;;;;4.90;3.42;;;;;;;22.41;39.83;95766.16;5006331;28;20034;-68
2021/11/19 02:42:38;;;;;;;5.00;3.60;;;;;;;22.42;40.00;95765.66;5006892;28;20037;-68
2021/11/19 02:45:15;;;;;;;4.55;3.40;;;;;;;22.40;39.85;95765.38;5006996;28;20030;-68
2021/11/19 02:47:41;;;;;;;4.43;3.45;;;;;;;22.40;39.83;95765.38;5007096;28;20585;-68
2021/11/19 02:50:07;;;;;;;5.72;3.70;;;;;;;22.40;39.99;95770.81;5006502;28;20026;-68
2021/11/19 02:52:35;;;;;;;5.90;3.63;;;;;;;22.40;39.96;95765.38;5007168;28;20057;-68
2021/11/19 02:55:02;;;;;;;5.05;3.58;;;;;;;22.40;39.84;95759.94;5005720;28;20041;-68
2021/11/19 02:57:27;;;;;;;5.35;3.45;;;;;;;22.38;39.84;95767.84;5006754;28;20136;-68
2021/11/19 02:59:54;;;;;;;5.45;3.63;;;;;;;22.38;39.89;95773.28;5006589;28;20507;-68
2021/11/19 03:02:24;;;;;;;5.57;3.83;;;;;;;22.38;39.87;95773.28;5006924;28;20033;-67
2021/11/19 03:04:51;;;;;;;5.07;3.50;;;;;;;22.36;39.85;95764.88;5005411;28;20060;-68
2021/11/19 03:07:17;;;;;;;4.72;3.55;;;;;;;22.37;39.85;95766.34;5005458;28;20491;-68
2021/11/19 03:09:51;;;;;;;5.07;3.58;;;;;;;22.37;39.87;95765.63;5005727;28;20088;-68
2021/11/19 03:12:20;;;;;;;4.93;3.40;;;;;;;22.35;39.89;95768.81;5006376;28;20092;-68
2021/11/19 03:14:47;;;;;;;4.80;3.47;;;;;;;22.36;39.82;95759.44;5005053;28;20034;-68
2021/11/19 03:17:13;;;;;;;4.70;3.67;;;;;;;22.34;39.98;95756.44;5006573;28;20563;-68
2021/11/19 03:19:38;;;;;;;4.95;3.50;;;;;;;22.35;39.91;95762.63;5005031;28;20117;-67
2021/11/19 03:22:04;;;;;;;5.40;3.78;;;;;;;22.32;39.87;95756.19;5004817;28;20049;-68
2021/11/19 03:24:29;;;;;;;5.15;3.58;;;;;;;22.34;39.84;95767.31;5006386;28;20038;-67
2021/11/19 03:26:55;;;;;;;5.25;3.55;;;;;;;22.30;39.98;95750.47;5006091;28;20448;-68
2021/11/19 03:29:21;;;;;;;4.32;3.40;;;;;;;22.32;39.83;95758.91;5004818;28;20510;-68
2021/11/19 03:31:46;;;;;;;4.75;3.22;;;;;;;22.31;39.83;95751.97;5005936;28;20117;-68
2021/11/19 03:34:12;;;;;;;5.28;3.58;;;;;;;22.30;39.80;95750.47;5006268;28;20125;-68
2021/11/19 03:36:39;;;;;;;5.45;3.58;;;;;;;22.31;39.90;95759.38;5004772;28;20037;-67
2021/11/19 03:39:04;;;;;;;4.30;3.05;;;;;;;22.31;39.84;95754.69;5005876;28;20455;-67
2021/11/19 03:41:32;;;;;;;4.93;3.50;;;;;;;22.28;40.10;95752.94;5005835;28;20029;-68
2021/11/19 03:44:00;;;;;;;4.57;3.30;;;;;;;22.29;39.97;95759.88;5004708;28;20026;-68
2021/11/19 03:46:39;;;;;;;4.82;3.33;;;;;;;22.27;40.04;95756.91;5005701;28;20061;-68
2021/11/19 03:49:04;;;;;;;4.05;2.95;;;;;;;22.27;39.90;95756.91;5004538;28;20129;-68
2021/11/19 03:51:40;;;;;;;4.38;3.30;;;;;;;22.29;39.93;95754.44;5005051;28;20042;-68
2021/11/19 03:54:05;;;;;;;4.13;2.95;;;;;;;22.27;39.99;95751.44;5005875;28;20026;-68
2021/11/19 03:56:31;;;;;;;4.88;3.38;;;;;;;22.28;39.72;95747.47;5004472;28;20708;-68
2021/11/19 03:58:56;;;;;;;4.10;3.00;;;;;;;22.28;40.02;95757.63;5005567;28;20112;-68
2021/11/19 04:01:28;;;;;;;4.40;3.28;;;;;;;22.26;39.76;95760.84;5005344;28;20061;-68
2021/11/19 04:03:53;;;;;;;4.63;3.22;;;;;;;22.24;39.79;95749.69;5005618;28;20053;-68
2021/11/19 04:06:20;;;;;;;4.43;3.28;;;;;;;22.26;39.82;95749.94;5004418;28;20464;-68
2021/11/19 04:08:45;;;;;;;4.63;3.10;;;;;;;22.25;40.05;95753.88;5005510;28;20037;-68
2021/11/19 04:11:11;;;;;;;4.10;3.10;;;;;;;22.24;39.77;95752.41;5005491;28;20030;-69
2021/11/19 04:13:37;;;;;;;4.85;3.40;;;;;;;22.24;39.93;95752.41;5006644;28;20029;-67
2021/11/19 04:16:12;;;;;;;4.57;3.28;;;;;;;22.22;39.92;95748.69;5007123;28;20076;-68
2021/11/19 04:18:37;;;;;;;5.10;2.97;;;;;;;22.24;40.02;95752.41;5005884;28;20029;-68
2021/11/19 04:21:03;;;;;;;4.30;2.90;;;;;;;22.23;40.20;95740.03;5005786;28;20045;-67
2021/11/19 04:23:29;;;;;;;4.95;3.30;;;;;;;22.22;39.95;95754.13;5005683;28;20794;-66
2021/11/19 04:25:55;;;;;;;4.72;3.58;;;;;;;22.23;39.79;95750.91;5005415;28;20087;-67
2021/11/19 04:28:20;;;;;;;4.40;3.08;;;;;;;22.21;40.02;95747.94;5005384;28;20563;-67
2021/11/19 04:30:51;;;;;;;4.70;3.38;;;;;;;22.23;39.90;95755.63;5004900;28;20037;-67
2021/11/19 04:33:18;;;;;;;4.30;3.22;;;;;;;22.20;39.88;95751.84;5005300;28;20050;-67
2021/11/19 04:35:44;;;;;;;4.55;3.20;;;;;;;22.21;39.77;95747.19;5003642;28;20028;-67
2021/11/19 04:38:10;;;;;;;4.68;3.38;;;;;;;22.20;40.08;95746.41;5003843;28;20029;-67
2021/11/19 04:40:35;;;;;;;4.35;3.40;;;;;;;22.20;39.90;95748.41;5004824;28;20743;-67
2021/11/19 04:43:01;;;;;;;3.65;2.75;;;;;;;22.21;39.94;95747.94;5005023;28;20387;-69
2021/11/19 04:45:28;;;;;;;3.63;2.70;;;;;;;22.19;39.85;95753.06;5004979;28;20030;-66
2021/11/19 04:47:53;;;;;;;4.75;3.22;;;;;;;22.18;39.87;95748.13;5004988;28;20160;-66
2021/11/19 04:50:20;;;;;;;4.22;3.03;;;;;;;22.18;39.92;95746.16;5003482;28;20149;-66
2021/11/19 04:52:46;;;;;;;3.80;2.90;;;;;;;22.18;39.95;95748.88;5004779;28;20049;-68
2021/11/19 04:55:12;;;;;;;3.65;3.10;;;;;;;22.20;39.92;95757.31;5004878;28;20138;-68
2021/11/19 04:57:37;;;;;;;3.60;2.80;;;;;;;22.17;40.03;95749.38;5004925;28;20026;-69
2021/11/19 05:00:07;;;;;;;4.32;3.00;;;;;;;22.18;39.88;95743.44;5003271;28;20103;-66
2021/11/19 05:02:32;;;;;;;4.30;3.20;;;;;;;22.16;40.05;95740.44;5004715;28;20097;-67
2021/11/19 05:04:58;;;;;;;4.05;3.17;;;;;;;22.16;39.89;95745.88;5004837;28;20486;-67
2021/11/19 05:07:23;;;;;;;4.03;3.15;;;;;;;22.15;39.92;95738.97;5004453;28;20628;-67
2021/11/19 05:09:49;;;;;;;3.80;2.97;;;;;;;22.15;39.84;95747.13;5004673;28;20399;-67
2021/11/19 05:12:24;;;;;;;4.57;3.20;;;;;;;22.15;39.98;95744.41;5004540;28;20042;-67
2021/11/19 05:14:49;;;;;;;4.50;3.10;;;;;;;22.13;39.87;95749.56;5003430;28;20036;-66
2021/11/19 05:17:15;;;;;;;3.75;3.00;;;;;;;22.14;39.98;95758.50;5004588;28;20435;-67
2021/11/19 05:19:41;;;;;;;4.50;2.83;;;;;;;22.14;40.08;95753.78;5004620;28;20061;-67
2021/11/19 05:22:06;;;;;;;4.03;3.30;;;;;;;22.14;40.21;95763.94;5002971;28;20451;-67
2021/11/19 05:24:32;;;;;;;4.55;3.20;;;;;;;22.13;39.92;95760.44;5004859;28;20136;-66
2021/11/19 05:26:57;;;;;;;4.13;2.95;;;;;;;22.12;39.96;95761.69;5004447;28;20022;-67
2021/11/19 05:29:23;;;;;;;4.55;3.30;;;;;;;22.12;40.06;95760.94;5004674;28;20443;-67
2021/11/19 05:31:49;;;;;;;4.05;2.90;;;;;;;22.11;39.81;95760.19;5004320;28;20030;-67
2021/11/19 05:34:15;;;;;;;3.00;2.58;;;;;;;22.12;39.84;95756.25;5003194;28;20042;-67
2021/11/19 05:36:40;;;;;;;4.45;3.10;;;;;;;22.12;39.91;95755.50;5004130;28;20033;-68
2021/11/19 05:39:06;;;;;;;5.60;2.80;;;;;;;22.14;40.15;95759.22;5011792;28;20037;-63
2021/11/19 05:41:31;;;;;;;5.35;2.83;;;;;;;22.17;40.30;95758.25;5023969;28;20033;-66
2021/11/19 05:43:57;;;;;;;3.35;2.58;;;;;;;22.19;40.08;95753.06;5023901;28;20034;-66
2021/11/19 05:46:24;;;;;;;4.28;2.55;;;;;;;22.28;40.05;95763.81;5023905;28;20037;-65
2021/11/19 05:48:50;;;;;;;3.50;2.90;;;;;;;22.33;40.03;95760.41;5024082;28;20057;-66
2021/11/19 05:51:16;;;;;;;7.90;2.80;;;;;;;22.41;39.74;95766.88;5006195;28;20028;-65
2021/11/19 05:53:43;;;;;;;4.43;3.17;;;;;;;22.53;39.52;95768.44;5023318;28;20033;-64
2021/11/19 05:56:08;;;;;;;4.25;2.65;;;;;;;22.62;39.71;95760.09;5015388;28;20030;-63
2021/11/19 05:58:33;;;;;;;6.28;2.78;;;;;;;22.71;39.41;95765.34;5022743;28;20029;-64
2021/11/19 06:01:01;;;;;;;5.53;2.42;;;;;;;22.82;39.33;95768.13;5021986;28;20022;-65
2021/11/19 06:03:28;;;;;;;3.50;2.58;;;;;;;22.89;39.28;95752.81;5022525;28;20136;-67
2021/11/19 06:05:54;;;;;;;5.00;2.72;;;;;;;23.00;39.17;95769.25;5024111;28;20037;-68
2021/11/19 06:08:20;;;;;;;5.22;2.30;;;;;;;23.12;39.08;95765.34;5023941;28;20109;-64
2021/11/19 06:10:51;;;;;;;4.25;2.80;;;;;;;23.23;38.90;95764.63;5023482;28;20055;-66
2021/11/19 06:13:19;;;;;;;4.25;2.78;;;;;;;23.31;38.83;95777.28;5022258;28;20108;-65
2021/11/19 06:15:50;;;;;;;3.33;2.60;;;;;;;23.42;38.47;95774.59;5025213;28;20044;-67
2021/11/19 06:18:20;;;;;;;4.03;2.80;;;;;;;23.54;38.29;95779.59;5009834;28;20021;-64
2021/11/19 06:20:47;;;;;;;3.73;2.40;;;;;;;23.64;38.35;95774.69;5027253;28;20028;-66
2021/11/19 06:23:18;;;;;;;5.15;2.75;;;;;;;23.80;38.18;95779.44;5009386;28;20053;-66
2021/11/19 06:25:43;;;;;;;3.47;2.45;;;;;;;23.91;38.76;95780.19;5027339;28;20603;-67
2021/11/19 06:28:26;;;;;;;3.90;2.60;;;;;;;24.01;39.35;95779.47;5027167;28;20029;-66
2021/11/19 06:30:51;;;;;;;3.80;2.45;;;;;;;24.11;40.51;95778.00;5011216;28;20022;-64
2021/11/19 06:33:19;;;;;;;3.92;2.70;;;;;;;24.17;40.05;95778.75;5026082;28;20088;-65
2021/11/19 06:35:44;;;;;;;2.83;2.30;;;;;;;24.30;40.36;95778.97;4993369;28;20034;-65
2021/11/19 06:38:10;;;;;;;3.05;2.65;;;;;;;24.39;40.03;95787.72;5026724;28;20098;-64
2021/11/19 06:40:36;;;;;;;4.40;2.45;;;;;;;24.50;40.50;95790.41;5026966;28;20033;-64
2021/11/19 06:43:02;;;;;;;3.05;2.22;;;;;;;24.57;39.18;95791.91;5008759;28;20415;-68
2021/11/19 06:45:28;;;;;;;4.10;2.50;;;;;;;24.61;38.99;95792.41;5009197;28;20033;-66
2021/11/19 06:47:54;;;;;;;3.25;2.35;;;;;;;24.64;39.11;95780.47;5024909;28;20079;-67
2021/11/19 06:50:25;;;;;;;3.55;2.58;;;;;;;24.72;38.61;95786.91;5026001;28;20025;-66
2021/11/19 06:52:50;;;;;;;3.25;2.15;;;;;;;24.72;38.69;95782.19;5008156;28;20033;-67
2021/11/19 06:55:16;;;;;;;4.03;2.30;;;;;;;24.77;38.25;95788.88;5025630;28;20041;-67
2021/11/19 06:57:41;;;;;;;4.13;2.53;;;;;;;24.82;38.35;95781.41;5008181;28;20027;-66
2021/11/19 07:00:13;;;;;;;2.97;2.15;;;;;;;24.86;37.94;95790.13;5025821;28;20079;-66
2021/11/19 07:02:38;;;;;;;3.65;2.30;;;;;;;24.90;37.94;95785.16;5025325;28;20503;-66
2021/11/19 07:05:04;;;;;;;3.55;2.40;;;;;;;24.93;37.80;95792.34;5026039;28;20044;-67
2021/11/19 07:07:30;;;;;;;2.92;2.20;;;;;;;24.95;37.42;95795.31;5025722;28;20770;-67
2021/11/19 07:09:55;;;;;;;3.35;2.00;;;;;;;25.00;37.42;95786.38;5025397;28;20029;-67
2021/11/19 07:12:21;;;;;;;3.08;2.22;;;;;;;25.06;37.04;95778.91;5023225;28;20028;-65
2021/11/19 07:14:46;;;;;;;2.53;2.10;;;;;;;25.12;37.28;95771.44;5007819;28;20549;-67
2021/11/19 07:17:12;;;;;;;3.22;2.30;;;;;;;25.11;36.93;95786.38;5025077;28;20527;-67
2021/11/19 07:19:38;;;;;;;3.63;2.28;;;;;;;25.17;36.65;95787.09;5007832;28;20036;-67
2021/11/19 07:22:03;;;;;;;3.78;2.40;;;;;;;25.20;36.49;95788.06;5020052;28;20476;-68
2021/11/19 07:24:29;;;;;;;3.20;2.00;;;;;;;25.26;36.25;95792.28;5025629;28;20064;-66
2021/11/19 07:26:54;;;;;;;4.95;2.47;;;;;;;25.32;36.37;95791.00;5024900;28;20086;-68
2021/11/19 07:29:20;;;;;;;3.20;2.20;;;;;;;25.34;36.36;95801.44;5025444;28;20029;-68
2021/11/19 07:31:45;;;;;;;4.10;2.28;;;;;;;25.36;36.18;95796.94;5022189;28;20054;-67
2021/11/19 07:34:11;;;;;;;3.05;2.60;;;;;;;25.36;36.42;95794.19;5021196;28;20038;-67
2021/11/19 07:36:36;;;;;;;4.32;2.10;;;;;;;25.41;36.20;95792.69;5024713;28;20045;-68
2021/11/19 07:39:04;;;;;;;3.92;2.28;;;;;;;25.44;35.96;95791.69;5025333;28;20555;-68
2021/11/19 07:41:29;;;;;;;3.10;2.17;;;;;;;25.45;35.79;95793.19;5025352;28;20036;-66
2021/11/19 07:43:55;;;;;;;3.08;1.88;;;;;;;25.58;35.63;95796.13;5019379;28;20030;-68
2021/11/19 07:46:24;;;;;;;3.97;2.17;;;;;;;25.58;35.75;95796.13;5024265;28;20029;-68
2021/11/19 07:48:49;;;;;;;3.17;2.25;;;;;;;25.57;35.61;95789.13;5022839;28;20037;-69
2021/11/19 07:51:18;;;;;;;3.78;2.15;;;;;;;25.56;35.89;95793.13;5024282;28;20412;-68
2021/11/19 07:53:44;;;;;;;5.15;3.17;;;;;;;25.56;35.49;95804.06;5021964;28;20025;-65
2021/11/19 07:56:10;;;;;;;3.22;2.03;;;;;;;25.59;35.44;95797.56;5025365;28;20056;-72
2021/11/19 07:58:36;;;;;;;4.05;2.20;;;;;;;25.66;35.42;95791.63;5023939;28;20110;-68
2021/11/19 08:01:02;;;;;;;3.35;2.20;;;;;;;25.67;35.49;95793.84;5024370;28;20029;-69
2021/11/19 08:03:27;;;;;;;3.95;2.35;;;;;;;25.67;35.27;95793.13;5004077;28;20476;-69
2021/11/19 08:05:56;;;;;;;3.33;2.13;;;;;;;25.69;35.56;95798.81;4985624;28;20026;-68
2021/11/19 08:08:22;;;;;;;2.90;2.03;;;;;;;25.71;35.36;95799.03;4984391;28;20468;-69
2021/11/19 08:10:47;;;;;;;3.35;1.80;;;;;;;25.73;35.14;95807.50;4984810;28;20026;-69
2021/11/19 08:13:13;;;;;;;3.25;2.50;;;;;;;25.75;34.78;95800.25;4985537;28;20026;-69
2021/11/19 08:15:38;;;;;;;2.45;2.22;;;;;;;25.77;34.72;95802.50;4985026;28;20157;-70
2021/11/19 08:18:09;;;;;;;3.40;2.00;;;;;;;25.77;35.00;95802.50;4982921;28;20138;-69
2021/11/19 08:20:38;;;;;;;4.68;2.35;;;;;;;25.79;34.78;95801.47;4983757;28;20044;-69
2021/11/19 08:23:13;;;;;;;2.92;1.98;;;;;;;25.82;34.85;95805.94;4984063;28;20041;-70
2021/11/19 08:25:39;;;;;;;3.25;2.08;;;;;;;25.85;34.63;95806.94;4982831;28;20033;-69
2021/11/19 08:28:04;;;;;;;4.28;2.88;;;;;;;25.91;34.56;95802.16;4968341;28;20080;-68
2021/11/19 08:30:35;;;;;;;3.83;2.45;;;;;;;25.89;34.40;95794.47;4985187;28;20026;-68
2021/11/19 08:33:02;;;;;;;4.20;2.30;;;;;;;25.93;34.63;95794.94;5001194;28;20096;-69
2021/11/19 08:35:28;;;;;;;4.13;2.22;;;;;;;25.92;34.44;95801.66;4985526;28;20108;-69
2021/11/19 08:37:54;;;;;;;3.17;2.40;;;;;;;25.96;34.49;95793.94;4985165;28;20061;-69
2021/11/19 08:40:20;;;;;;;3.15;1.92;;;;;;;26.02;34.29;95800.13;4943172;28;20045;-69
2021/11/19 08:42:45;;;;;;;3.67;2.35;;;;;;;26.07;34.25;95810.28;4983662;28;20476;-69
2021/11/19 08:45:12;;;;;;;3.55;1.98;;;;;;;26.07;34.44;95804.81;4989793;28;20034;-69
2021/11/19 08:47:38;;;;;;;4.07;2.20;;;;;;;26.10;34.24;95806.53;4979410;28;20030;-69
2021/11/19 08:50:04;;;;;;;3.53;2.20;;;;;;;26.19;34.08;95810.94;4984775;28;20417;-69
2021/11/19 08:52:30;;;;;;;3.30;2.38;;;;;;;26.19;34.16;95798.00;4984359;28;20054;-69
2021/11/19 08:54:56;;;;;;;2.90;2.00;;;;;;;26.23;33.97;95795.72;4983459;28;20050;-69
2021/11/19 08:57:24;;;;;;;3.50;2.30;;;;;;;26.28;33.81;95792.97;4984132;28;20030;-70
2021/11/19 08:59:49;;;;;;;4.25;2.30;;;;;;;26.33;33.80;95794.91;4983680;28;20501;-64
2021/11/19 09:02:17;;;;;;;3.25;2.40;;;;;;;26.36;33.72;95798.63;4998946;28;20030;-64
2021/11/19 09:04:42;;;;;;;2.70;1.98;;;;;;;26.43;33.67;95792.63;5018047;28;20052;-69
2021/11/19 09:07:07;;;;;;;3.80;2.25;;;;;;;26.45;33.78;95784.63;5024438;28;20026;-71
2021/11/19 09:09:33;;;;;;;3.33;2.30;;;;;;;26.52;33.34;95784.06;5022850;28;20033;-68
2021/11/19 09:11:59;;;;;;;4.43;2.42;;;;;;;26.53;33.50;95780.81;5022930;28;20374;-68
2021/11/19 09:14:25;;;;;;;4.88;2.10;;;;;;;26.57;33.77;95780.53;5005195;28;20443;-69
2021/11/19 09:17:12;;;;;;;3.78;2.20;;;;;;;26.66;33.17;95771.97;5005072;28;20061;-70
2021/11/19 09:20:08;;;;;;;3.58;2.22;;;;;;;26.70;33.35;95769.72;5007760;28;20037;-70
2021/11/19 09:22:55;;;;;;;4.93;2.25;;;;;;;26.68;33.31;95763.97;5005132;28;20037;-69
2021/11/19 09:25:21;;;;;;;3.95;2.30;;;;;;;26.63;33.69;95762.03;5023856;28;20121;-69
2021/11/19 09:27:47;;;;;;;3.95;2.17;;;;;;;26.63;33.40;95740.84;5025299;28;20057;-69
2021/11/19 09:30:25;;;;;;;3.45;2.33;;;;;;;26.64;33.53;95742.34;5024264;28;20518;-70
2021/11/19 09:32:51;;;;;;;3.72;2.42;;;;;;;26.65;33.44;95748.56;5005033;28;20017;-71
2021/11/19 09:35:18;;;;;;;3.75;2.00;;;;;;;26.73;33.00;95744.03;5024099;28;20565;-71
2021/11/19 09:37:45;;;;;;;3.33;2.30;;;;;;;26.71;33.05;95724.59;5008984;28;20067;-69
2021/11/19 09:40:11;;;;;;;3.20;2.20;;;;;;;26.76;32.84;95733.50;5006375;28;20029;-70
2021/11/19 09:42:45;;;;;;;4.05;2.40;;;;;;;26.76;32.99;95737.50;5024271;28;20067;-70
2021/11/19 09:45:20;;;;;;;3.63;2.20;;;;;;;26.82;32.83;95730.72;5023231;28;20278;-70
2021/11/19 09:48:07;;;;;;;5.93;2.80;;;;;;;26.62;31.10;95722.19;5023443;28;20112;-72
2021/11/19 09:50:44;;;;;;;3.60;2.20;;;;;;;26.76;32.18;95733.50;5010630;28;20036;-70
2021/11/19 09:53:19;;;;;;;7.82;2.30;;;;;;;26.70;32.90;95739.56;5026993;28;20594;-70
2021/11/19 09:56:07;;;;;;;3.85;2.20;;;;;;;26.80;33.06;95716.75;5009400;28;20037;-72
2021/11/19 09:58:54;;;;;;;3.97;2.30;;;;;;;26.83;32.88;95721.97;5028087;28;20018;-68
2021/11/19 10:01:28;;;;;;;5.03;2.42;;;;;;;26.87;32.78;95733.38;5009684;28;20167;-68
2021/11/19 10:04:11;;;;;;;3.42;2.25;;;;;;;26.87;33.02;95705.97;5027171;28;20064;-67
2021/11/19 10:06:51;;;;;;;4.10;2.20;;;;;;;26.89;33.08;95703.50;5026807;28;20099;-68
2021/11/19 10:09:23;;;;;;;4.55;2.35;;;;;;;26.93;33.01;95698.44;5026861;28;20116;-69
2021/11/19 10:12:00;;;;;;;6.78;2.63;;;;;;;26.94;33.12;95694.44;5025848;28;20033;-70
2021/11/19 10:14:41;;;;;;;4.10;2.35;;;;;;;26.98;32.78;95697.66;5024722;28;20412;-70
2021/11/19 10:17:10;;;;;;;4.35;2.13;;;;;;;26.99;32.92;95687.41;5025936;28;20028;-64
2021/11/19 10:20:13;;;;;;;4.85;2.50;;;;;;;27.04;33.11;95687.38;5026498;28;20029;-66
2021/11/19 10:22:40;;;;;;;4.18;2.15;;;;;;;27.08;32.84;95676.81;5003498;28;20045;-65
2021/11/19 10:25:46;;;;;;;5.35;2.58;;;;;;;27.10;33.00;95671.59;5008884;28;20175;-66
2021/11/19 10:28:16;;;;;;;6.05;2.60;;;;;;;27.07;32.70;95667.13;4990233;28;20217;-63
2021/11/19 10:30:48;;;;;;;5.93;2.42;;;;;;;27.05;32.84;95661.41;5025422;28;20030;-66
2021/11/19 10:33:15;;;;;;;4.07;2.20;;;;;;;27.04;33.04;95648.97;5009366;28;20052;-65
2021/11/19 10:36:01;;;;;;;5.55;2.85;;;;;;;27.06;33.11;95646.44;5007529;28;20032;-66
2021/11/19 10:38:27;;;;;;;4.50;2.38;;;;;;;27.09;33.21;95639.19;5026897;28;20578;-66
2021/11/19 10:41:18;;;;;;;5.70;3.10;;;;;;;27.12;33.01;95638.91;5027516;28;20063;-66
2021/11/19 10:44:21;;;;;;;6.25;2.63;;;;;;;27.05;33.27;95639.47;5026283;28;20124;-66
2021/11/19 10:47:05;;;;;;;6.80;2.80;;;;;;;26.99;33.12;95636.06;5025435;28;20029;-68
2021/11/19 10:49:55;;;;;;;5.80;2.53;;;;;;;26.94;33.15;95638.91;5027104;28;20029;-66
2021/11/19 10:52:33;;;;;;;4.68;2.50;;;;;;;26.81;33.56;95631.28;5026622;28;20045;-66
2021/11/19 10:55:19;;;;;;;3.97;2.50;;;;;;;26.78;33.50;95637.78;5008914;28;20109;-66
2021/11/19 10:58:03;;;;;;;4.85;2.88;;;;;;;26.65;33.69;95634.25;5008859;28;20029;-66
2021/11/19 11:00:53;;;;;;;6.68;3.00;;;;;;;26.59;33.72;95635.53;5025944;28;20423;-65
2021/11/19 11:03:27;;;;;;;6.43;2.80;;;;;;;26.44;33.87;95635.97;5026220;28;20471;-66
2021/11/19 11:05:58;;;;;;;5.07;2.95;;;;;;;26.35;33.88;95621.88;5010012;28;20057;-65
2021/11/19 11:08:35;;;;;;;6.70;2.60;;;;;;;26.36;34.21;95629.56;5026530;28;20037;-66
2021/11/19 11:11:28;;;;;;;5.70;2.90;;;;;;;26.31;34.06;95635.13;5026255;28;20049;-66
2021/11/19 11:13:58;;;;;;;5.40;2.63;;;;;;;26.17;34.22;95628.00;5026357;28;20037;-65
2021/11/19 11:16:29;;;;;;;4.32;2.60;;;;;;;26.10;34.35;95623.09;5026159;28;20029;-67
2021/11/19 11:18:57;;;;;;;4.97;2.50;;;;;;;26.04;34.55;95630.63;5009076;28;20047;-66
2021/11/19 11:21:46;;;;;;;5.25;2.47;;;;;;;25.95;34.77;95633.69;5026311;28;20115;-65
2021/11/19 11:24:21;;;;;;;6.15;2.63;;;;;;;25.94;34.55;95626.72;5026279;28;20029;-68
2021/11/19 11:26:50;;;;;;;5.50;2.55;;;;;;;25.86;34.70;95620.34;5026013;28;20119;-67
2021/11/19 11:29:15;;;;;;;5.78;2.63;;;;;;;25.75;34.86;95618.94;5026381;28;20041;-66
2021/11/19 11:31:47;;;;;;;5.15;2.58;;;;;;;25.64;34.69;95616.28;5025887;28;20107;-67
2021/11/19 11:34:25;;;;;;;4.70;2.72;;;;;;;25.61;34.76;95611.81;5026420;28;20018;-68
2021/11/19 11:37:02;;;;;;;4.82;2.40;;;;;;;25.58;35.04;95616.31;5025930;28;20041;-68
2021/11/19 11:40:00;;;;;;;4.50;2.42;;;;;;;25.54;34.95;95604.91;5009824;28;20029;-67
2021/11/19 11:42:38;;;;;;;4.55;2.60;;;;;;;25.46;35.20;95597.75;5010987;28;20033;-68
2021/11/19 11:45:30;;;;;;;3.75;2.50;;;;;;;25.46;34.94;95597.75;5025252;28;20504;-67
2021/11/19 11:48:22;;;;;;;4.68;2.17;;;;;;;25.46;35.07;95608.72;5025819;28;20117;-67